createdAt,value
2023-04-09T00:00:44.972Z,101767.03
2023-04-09T00:03:11.906Z,101770.53
2023-04-09T00:05:40.987Z,101770.56
2023-04-09T00:08:07.996Z,101762.44
2023-04-09T00:10:34.889Z,101772.03
2023-04-09T00:13:01.610Z,101769.38
2023-04-09T00:15:31.625Z,101767.53
2023-04-09T00:17:59.525Z,101764.78
2023-04-09T00:20:26.421Z,101772.66
2023-04-09T00:22:53.292Z,101767.47
2023-04-09T00:25:20.218Z,101761.56
2023-04-09T00:27:47.122Z,101756.53
2023-04-09T00:30:13.995Z,101761.56
2023-04-09T00:32:41.132Z,101774.22
2023-04-09T00:35:08.652Z,101769.53
2023-04-09T00:37:35.403Z,101764.44
2023-04-09T00:40:02.295Z,101765.94
2023-04-09T00:42:35.050Z,101766.88
2023-04-09T00:45:02.287Z,101761.88
2023-04-09T00:47:30.564Z,101770.66
2023-04-09T00:49:57.908Z,101767.97
2023-04-09T00:52:24.845Z,101772.00
2023-04-09T00:54:52.124Z,101779.81
2023-04-09T00:57:19.743Z,101769.63
2023-04-09T00:59:46.841Z,101776.19
2023-04-09T01:02:13.728Z,101783.28
2023-04-09T01:04:42.076Z,101785.69
2023-04-09T01:07:27.896Z,101788.00
2023-04-09T01:10:05.584Z,101782.19
2023-04-09T01:12:54.711Z,101778.13
2023-04-09T01:15:31.310Z,101782.41
2023-04-09T01:18:19.278Z,101784.81
2023-04-09T01:20:58.164Z,101783.28
2023-04-09T01:23:37.522Z,101785.81
2023-04-09T01:26:14.624Z,101791.16
2023-04-09T01:28:51.086Z,101783.41
2023-04-09T01:31:20.647Z,101790.19
2023-04-09T01:33:47.930Z,101795.44
2023-04-09T01:36:15.474Z,101793.78
2023-04-09T01:38:44.491Z,101805.88
2023-04-09T01:41:17.100Z,101799.22
2023-04-09T01:43:45.566Z,101804.47
2023-04-09T01:46:13.545Z,101798.69
2023-04-09T01:48:41.086Z,101806.31
2023-04-09T01:51:07.845Z,101796.81
2023-04-09T01:53:34.702Z,101801.94
2023-04-09T01:56:01.975Z,101802.06
2023-04-09T01:58:28.875Z,101799.81
2023-04-09T02:01:21.036Z,101793.91
2023-04-09T02:03:54.410Z,101797.78
2023-04-09T02:06:46.926Z,101798.84
2023-04-09T02:09:17.139Z,101798.00
2023-04-09T02:11:47.676Z,101800.34
2023-04-09T02:14:15.981Z,101806.72
2023-04-09T02:16:43.028Z,101808.75
2023-04-09T02:19:11.101Z,101820.69
2023-04-09T02:21:37.994Z,101825.09
2023-04-09T02:24:05.042Z,101819.28
2023-04-09T02:26:31.717Z,101814.41
2023-04-09T02:28:59.246Z,101802.53
2023-04-09T02:31:25.980Z,101812.38
2023-04-09T02:33:54.238Z,101811.22
2023-04-09T02:36:21.083Z,101812.03
2023-04-09T02:38:47.799Z,101810.41
2023-04-09T02:41:14.579Z,101813.03
2023-04-09T02:43:41.333Z,101811.03
2023-04-09T02:46:08.692Z,101818.03
2023-04-09T02:48:36.577Z,101813.97
2023-04-09T02:51:06.337Z,101807.84
2023-04-09T02:53:33.225Z,101807.97
2023-04-09T02:55:59.956Z,101810.47
2023-04-09T02:58:26.743Z,101810.47
2023-04-09T03:00:53.493Z,101815.69
2023-04-09T03:03:20.489Z,101813.13
2023-04-09T03:05:47.215Z,101812.06
2023-04-09T03:08:14.263Z,101808.72
2023-04-09T03:10:40.943Z,101809.59
2023-04-09T03:13:07.748Z,101809.50
2023-04-09T03:15:34.498Z,101812.66
2023-04-09T03:18:01.310Z,101811.31
2023-04-09T03:20:27.960Z,101806.38
2023-04-09T03:22:54.773Z,101813.41
2023-04-09T03:25:36.540Z,101811.69
2023-04-09T03:28:11.399Z,101815.06
2023-04-09T03:30:44.890Z,101815.13
2023-04-09T03:33:12.342Z,101814.94
2023-04-09T03:35:54.497Z,101817.78
2023-04-09T03:38:40.798Z,101808.44
2023-04-09T03:41:16.155Z,101807.94
2023-04-09T03:43:42.903Z,101815.91
2023-04-09T03:46:13.387Z,101808.75
2023-04-09T03:48:41.658Z,101812.97
2023-04-09T03:51:13.337Z,101810.66
2023-04-09T03:53:44.667Z,101808.25
2023-04-09T03:56:11.474Z,101813.38
2023-04-09T03:58:38.768Z,101815.06
2023-04-09T04:01:07.414Z,101809.78
2023-04-09T04:03:42.202Z,101813.81
2023-04-09T04:06:14.364Z,101808.94
2023-04-09T04:08:49.740Z,101816.16
2023-04-09T04:11:19.271Z,101813.22
2023-04-09T04:13:46.892Z,101814.22
2023-04-09T04:16:13.652Z,101824.34
2023-04-09T04:18:41.348Z,101823.66
2023-04-09T04:21:16.376Z,101820.94
2023-04-09T04:23:47.544Z,101828.78
2023-04-09T04:26:18.886Z,101829.81
2023-04-09T04:28:46.371Z,101833.31
2023-04-09T04:31:24.260Z,101833.56
2023-04-09T04:33:52.560Z,101836.66
2023-04-09T04:36:19.271Z,101831.69
2023-04-09T04:38:48.710Z,101845.34
2023-04-09T04:41:23.347Z,101840.16
2023-04-09T04:43:57.647Z,101845.94
2023-04-09T04:46:25.630Z,101844.41
2023-04-09T04:48:52.703Z,101847.16
2023-04-09T04:51:21.648Z,101848.25
2023-04-09T04:54:00.160Z,101843.38
2023-04-09T04:56:28.016Z,101848.66
2023-04-09T04:59:14.995Z,101850.50
2023-04-09T05:01:57.738Z,101849.00
2023-04-09T05:04:25.755Z,101853.94
2023-04-09T05:06:52.571Z,101849.34
2023-04-09T05:09:22.572Z,101850.47
2023-04-09T05:12:06.003Z,101852.47
2023-04-09T05:14:32.971Z,101851.03
2023-04-09T05:16:59.793Z,101855.44
2023-04-09T05:19:34.203Z,101856.41
2023-04-09T05:22:02.828Z,101858.03
2023-04-09T05:24:29.764Z,101855.41
2023-04-09T05:26:56.579Z,101856.59
2023-04-09T05:29:23.858Z,101857.91
2023-04-09T05:31:50.587Z,101856.41
2023-04-09T05:34:31.770Z,101864.47
2023-04-09T05:36:59.485Z,101863.88
2023-04-09T05:39:26.703Z,101865.66
2023-04-09T05:41:53.765Z,101872.13
2023-04-09T05:44:33.826Z,101874.97
2023-04-09T05:47:06.195Z,101869.59
2023-04-09T05:49:42.490Z,101875.84
2023-04-09T05:52:16.900Z,101883.41
2023-04-09T05:54:44.118Z,101883.56
2023-04-09T05:57:12.071Z,101889.69
2023-04-09T05:59:42.705Z,101887.44
2023-04-09T06:02:09.598Z,101890.47
2023-04-09T06:04:36.446Z,101884.91
2023-04-09T06:07:03.381Z,101888.03
2023-04-09T06:09:30.092Z,101898.66
2023-04-09T06:11:57.868Z,101904.06
2023-04-09T06:14:24.796Z,101907.00
2023-04-09T06:16:51.555Z,101904.69
2023-04-09T06:19:18.775Z,101905.00
2023-04-09T06:21:45.694Z,101904.47
2023-04-09T06:24:12.764Z,101897.88
2023-04-09T06:26:39.626Z,101893.97
2023-04-09T06:29:06.538Z,101898.53
2023-04-09T06:31:33.611Z,101895.66
2023-04-09T06:34:00.623Z,101902.84
2023-04-09T06:36:27.905Z,101901.34
2023-04-09T06:38:54.741Z,101899.91
2023-04-09T06:41:22.634Z,101892.69
2023-04-09T06:43:49.870Z,101902.63
2023-04-09T06:46:20.139Z,101898.94
2023-04-09T06:48:47.335Z,101907.19
2023-04-09T06:51:15.053Z,101909.31
2023-04-09T06:53:42.412Z,101915.63
2023-04-09T06:56:09.301Z,101915.75
2023-04-09T06:58:36.339Z,101922.88
2023-04-09T07:01:03.299Z,101924.59
2023-04-09T07:03:30.410Z,101915.34
2023-04-09T07:05:57.814Z,101921.56
2023-04-09T07:08:25.130Z,101921.63
2023-04-09T07:10:51.989Z,101915.25
2023-04-09T07:13:18.780Z,101925.75
2023-04-09T07:15:45.790Z,101920.00
2023-04-09T07:18:12.548Z,101927.84
2023-04-09T07:20:39.416Z,101923.72
2023-04-09T07:23:06.161Z,101924.63
2023-04-09T07:25:32.963Z,101927.56
2023-04-09T07:27:59.874Z,101931.50
2023-04-09T07:30:27.464Z,101934.56
2023-04-09T07:32:54.410Z,101936.41
2023-04-09T07:35:21.815Z,101940.69
2023-04-09T07:37:48.695Z,101936.38
2023-04-09T07:40:15.442Z,101930.91
2023-04-09T07:42:42.597Z,101934.38
2023-04-09T07:45:09.617Z,101942.28
2023-04-09T07:47:37.082Z,101937.38
2023-04-09T07:50:04.206Z,101947.25
2023-04-09T07:52:31.042Z,101937.22
2023-04-09T07:54:57.991Z,101937.28
2023-04-09T07:57:24.931Z,101946.72
2023-04-09T07:59:53.509Z,101951.84
2023-04-09T08:02:20.423Z,101948.31
2023-04-09T08:04:47.476Z,101956.31
2023-04-09T08:07:14.374Z,101949.78
2023-04-09T08:09:41.135Z,101955.41
2023-04-09T08:12:08.154Z,101957.66
2023-04-09T08:14:34.932Z,101956.41
2023-04-09T08:17:01.750Z,101960.06
2023-04-09T08:19:28.544Z,101962.81
2023-04-09T08:21:55.495Z,101978.66
2023-04-09T08:24:22.539Z,101974.16
2023-04-09T08:26:49.270Z,101992.06
2023-04-09T08:29:16.179Z,101983.63
2023-04-09T08:31:43.320Z,101997.59
2023-04-09T08:34:10.136Z,101997.03
2023-04-09T08:36:37.143Z,102003.34
2023-04-09T08:39:04.236Z,101996.25
2023-04-09T08:41:31.459Z,102003.84
2023-04-09T08:43:59.901Z,102003.75
2023-04-09T08:46:27.936Z,102003.47
2023-04-09T08:48:55.352Z,101993.97
2023-04-09T08:51:23.717Z,102003.03
2023-04-09T08:53:57.220Z,102005.56
2023-04-09T08:56:24.730Z,102009.13
2023-04-09T08:58:56.395Z,102008.16
2023-04-09T09:01:23.984Z,102008.63
2023-04-09T09:04:05.026Z,102008.31
2023-04-09T09:06:34.299Z,102017.25
2023-04-09T09:09:20.573Z,102018.25
2023-04-09T09:11:50.395Z,102023.97
2023-04-09T09:14:19.422Z,102025.06
2023-04-09T09:16:58.446Z,102025.41
2023-04-09T09:19:25.430Z,102025.16
2023-04-09T09:22:03.057Z,102029.41
2023-04-09T09:24:32.764Z,102018.38
2023-04-09T09:26:59.855Z,102025.81
2023-04-09T09:29:28.176Z,102025.03
2023-04-09T09:31:56.423Z,102024.09
2023-04-09T09:34:25.624Z,102024.81
2023-04-09T09:36:52.347Z,102026.66
2023-04-09T09:39:19.253Z,102032.09
2023-04-09T09:41:47.346Z,102026.75
2023-04-09T09:44:31.913Z,102029.97
2023-04-09T09:46:59.588Z,102022.28
2023-04-09T09:49:26.730Z,102022.38
2023-04-09T09:51:56.997Z,102031.75
2023-04-09T09:54:25.672Z,102023.16
2023-04-09T09:56:55.836Z,102024.94
2023-04-09T09:59:32.188Z,102021.78
2023-04-09T10:02:06.295Z,102014.06
2023-04-09T10:04:38.286Z,102016.53
2023-04-09T10:07:07.249Z,102015.75
2023-04-09T10:09:35.952Z,102011.53
2023-04-09T10:12:05.099Z,102014.09
2023-04-09T10:14:32.036Z,102020.44
2023-04-09T10:16:58.954Z,102028.09
2023-04-09T10:19:25.760Z,102021.19
2023-04-09T10:21:59.310Z,102019.50
2023-04-09T10:24:26.182Z,102021.56
2023-04-09T10:27:16.653Z,102018.22
2023-04-09T10:29:46.285Z,102018.09
2023-04-09T10:32:17.704Z,102012.19
2023-04-09T10:34:45.167Z,102018.09
2023-04-09T10:37:24.258Z,102015.13
2023-04-09T10:39:53.642Z,102017.16
2023-04-09T10:42:24.852Z,102010.56
2023-04-09T10:45:12.403Z,102018.31
2023-04-09T10:47:40.891Z,102009.28
2023-04-09T10:50:27.930Z,102013.41
2023-04-09T10:53:00.305Z,102006.09
2023-04-09T10:55:54.082Z,102008.31
2023-04-09T10:58:21.289Z,101998.25
2023-04-09T11:00:49.665Z,101991.63
2023-04-09T11:03:25.732Z,101996.81
2023-04-09T11:06:02.806Z,101990.81
2023-04-09T11:08:32.077Z,101997.38
2023-04-09T11:11:01.170Z,101988.50
2023-04-09T11:13:29.500Z,101988.81
2023-04-09T11:15:56.921Z,101991.97
2023-04-09T11:18:28.339Z,101998.16
2023-04-09T11:21:04.580Z,101995.19
2023-04-09T11:23:33.006Z,101994.56
2023-04-09T11:25:59.841Z,101992.06
2023-04-09T11:28:27.751Z,101995.69
2023-04-09T11:30:54.596Z,101988.91
2023-04-09T11:33:21.696Z,101987.19
2023-04-09T11:35:48.940Z,101997.25
2023-04-09T11:38:16.259Z,101992.78
2023-04-09T11:40:48.704Z,101989.59
2023-04-09T11:43:16.825Z,101992.84
2023-04-09T11:45:44.331Z,101994.59
2023-04-09T11:48:11.718Z,101986.94
2023-04-09T11:50:38.671Z,101987.91
2023-04-09T11:53:18.501Z,101982.38
2023-04-09T11:55:47.924Z,101971.41
2023-04-09T11:58:14.865Z,101976.88
2023-04-09T12:00:41.814Z,101967.38
2023-04-09T12:03:10.770Z,101968.03
2023-04-09T12:05:40.629Z,101968.94
2023-04-09T12:08:08.918Z,101971.25
2023-04-09T12:10:38.172Z,101960.31
2023-04-09T12:13:11.080Z,101958.03
2023-04-09T12:15:41.195Z,101963.44
2023-04-09T12:18:09.706Z,101947.47
2023-04-09T12:20:42.315Z,101955.38
2023-04-09T12:23:10.574Z,101948.81
2023-04-09T12:25:41.704Z,101952.41
2023-04-09T12:28:11.645Z,101948.94
2023-04-09T12:30:38.579Z,101944.56
2023-04-09T12:33:05.952Z,101944.50
2023-04-09T12:35:34.620Z,101941.78
2023-04-09T12:38:01.828Z,101956.00
2023-04-09T12:40:29.152Z,101957.97
2023-04-09T12:42:56.234Z,101961.78
2023-04-09T12:45:25.433Z,101953.53
2023-04-09T12:47:52.945Z,101954.69
2023-04-09T12:50:20.293Z,101949.78
2023-04-09T12:52:47.384Z,101941.97
2023-04-09T12:55:15.074Z,101945.44
2023-04-09T12:57:47.269Z,101940.25
2023-04-09T13:00:14.671Z,101949.38
2023-04-09T13:02:42.291Z,101950.03
2023-04-09T13:05:12.743Z,101950.13
2023-04-09T13:07:40.884Z,101943.47
2023-04-09T13:10:09.986Z,101943.75
2023-04-09T13:12:36.728Z,101934.22
2023-04-09T13:15:03.764Z,101938.13
2023-04-09T13:17:30.861Z,101935.03
2023-04-09T13:19:57.683Z,101927.28
2023-04-09T13:22:24.398Z,101922.69
2023-04-09T13:24:51.383Z,101918.00
2023-04-09T13:27:18.095Z,101918.09
2023-04-09T13:29:45.085Z,101898.13
2023-04-09T13:32:11.973Z,101916.16
2023-04-09T13:34:39.894Z,101913.34
2023-04-09T13:37:07.094Z,101918.91
2023-04-09T13:39:34.080Z,101911.69
2023-04-09T13:42:07.236Z,101916.91
2023-04-09T13:44:37.155Z,101906.44
2023-04-09T13:47:03.941Z,101907.50
2023-04-09T13:49:33.656Z,101898.50
2023-04-09T13:52:01.182Z,101879.69
2023-04-09T13:54:27.958Z,101885.88
2023-04-09T13:56:54.948Z,101880.34
2023-04-09T13:59:25.437Z,101882.19
2023-04-09T14:01:52.333Z,101883.22
2023-04-09T14:04:20.079Z,101877.47
2023-04-09T14:06:49.440Z,101872.53
2023-04-09T14:09:19.190Z,101874.16
2023-04-09T14:11:46.026Z,101855.16
2023-04-09T14:14:13.106Z,101865.66
2023-04-09T14:16:41.858Z,101866.59
2023-04-09T14:19:10.441Z,101853.53
2023-04-09T14:24:31.781Z,101863.31
2023-04-09T14:27:03.165Z,101860.69
2023-04-09T14:29:31.382Z,101858.84
2023-04-09T14:31:58.217Z,101849.28
2023-04-09T14:34:25.234Z,101865.75
2023-04-09T14:36:52.305Z,101867.56
2023-04-09T14:39:19.318Z,101875.47
2023-04-09T14:41:46.234Z,101865.03
2023-04-09T14:44:13.033Z,101874.41
2023-04-09T14:46:43.620Z,101876.88
2023-04-09T14:49:10.564Z,101882.97
2023-04-09T14:51:39.610Z,101873.53
2023-04-09T14:54:13.015Z,101872.88
2023-04-09T14:56:40.079Z,101858.25
2023-04-09T14:59:10.033Z,101873.88
2023-04-09T15:01:37.012Z,101869.28
2023-04-09T15:04:06.014Z,101851.91
2023-04-09T15:06:43.313Z,101871.88
2023-04-09T15:09:10.292Z,101860.09
2023-04-09T15:11:37.082Z,101862.56
2023-04-09T15:14:03.895Z,101852.25
2023-04-09T15:16:33.503Z,101860.03
2023-04-09T15:19:00.570Z,101848.81
2023-04-09T15:21:31.761Z,101862.84
2023-04-09T15:23:59.143Z,101856.00
2023-04-09T15:26:30.358Z,101848.09
2023-04-09T15:29:07.832Z,101848.16
2023-04-09T15:31:34.985Z,101852.94
2023-04-09T15:34:01.804Z,101864.81
2023-04-09T15:36:33.539Z,101865.66
2023-04-09T15:39:06.744Z,101850.00
2023-04-09T15:41:33.949Z,101853.75
2023-04-09T15:44:01.008Z,101848.00
2023-04-09T15:46:28.012Z,101846.97
2023-04-09T15:48:57.474Z,101846.88
2023-04-09T15:51:24.860Z,101842.97
2023-04-09T15:53:53.524Z,101838.63
2023-04-09T15:56:26.557Z,101834.38
2023-04-09T15:58:53.750Z,101836.97
2023-04-09T16:01:26.338Z,101840.19
2023-04-09T16:03:53.639Z,101851.84
2023-04-09T16:06:23.871Z,101859.72
2023-04-09T16:08:54.631Z,101845.72
2023-04-09T16:11:21.675Z,101852.94
2023-04-09T16:13:48.705Z,101864.63
2023-04-09T16:16:15.499Z,101857.72
2023-04-09T16:18:43.752Z,101849.19
2023-04-09T16:21:10.682Z,101856.50
2023-04-09T16:23:38.821Z,101860.06
2023-04-09T16:26:06.195Z,101872.13
2023-04-09T16:28:33.065Z,101861.75
2023-04-09T16:30:59.996Z,101868.72
2023-04-09T16:33:26.904Z,101860.00
2023-04-09T16:35:53.744Z,101870.38
2023-04-09T16:38:20.877Z,101876.34
2023-04-09T16:40:48.067Z,101871.53
2023-04-09T16:43:14.798Z,101879.63
2023-04-09T16:45:41.570Z,101882.94
2023-04-09T16:48:12.453Z,101873.25
2023-04-09T16:50:40.481Z,101881.91
2023-04-09T16:53:07.740Z,101879.22
2023-04-09T16:55:37.889Z,101875.81
2023-04-09T16:58:12.499Z,101875.66
2023-04-09T17:00:47.403Z,101856.38
2023-04-09T17:03:19.992Z,101859.75
2023-04-09T17:06:02.198Z,101875.28
2023-04-09T17:08:37.912Z,101902.31
2023-04-09T17:11:07.464Z,101911.59
2023-04-09T17:13:36.004Z,101874.94
2023-04-09T17:16:03.806Z,101893.00
2023-04-09T17:18:30.614Z,101900.75
2023-04-09T17:20:57.622Z,101907.63
2023-04-09T17:23:24.494Z,101901.06
2023-04-09T17:25:51.375Z,101906.19
2023-04-09T17:28:19.003Z,101888.72
2023-04-09T17:30:45.989Z,101917.97
2023-04-09T17:33:12.928Z,101901.34
2023-04-09T17:35:39.966Z,101916.00
2023-04-09T17:38:06.712Z,101910.81
2023-04-09T17:40:33.566Z,101912.50
2023-04-09T17:43:00.410Z,101917.75
2023-04-09T17:45:27.538Z,101925.34
2023-04-09T17:47:54.451Z,101918.34
2023-04-09T17:50:21.436Z,101920.84
2023-04-09T17:52:48.379Z,101928.53
2023-04-09T17:55:15.490Z,101931.06
2023-04-09T17:57:42.950Z,101939.47
2023-04-09T18:00:11.194Z,101925.34
2023-04-09T18:02:46.008Z,101941.78
2023-04-09T18:05:13.427Z,101926.84
2023-04-09T18:07:40.271Z,101938.84
2023-04-09T18:10:07.453Z,101931.72
2023-04-09T18:12:34.323Z,101947.16
2023-04-09T18:15:01.492Z,101944.34
2023-04-09T18:17:28.321Z,101945.09
2023-04-09T18:19:55.366Z,101949.91
2023-04-09T18:22:22.742Z,101929.84
2023-04-09T18:24:50.952Z,101943.88
2023-04-09T18:27:18.246Z,101944.66
2023-04-09T18:29:45.111Z,101948.03
2023-04-09T18:32:12.901Z,101962.63
2023-04-09T18:34:39.732Z,101952.19
2023-04-09T18:37:06.540Z,101973.50
2023-04-09T18:39:34.730Z,101964.53
2023-04-09T18:42:02.855Z,101964.16
2023-04-09T18:44:29.967Z,101970.84
2023-04-09T18:46:56.877Z,101973.22
2023-04-09T18:49:23.817Z,101976.22
2023-04-09T18:51:50.571Z,101978.97
2023-04-09T18:54:17.428Z,101978.84
2023-04-09T18:56:46.586Z,101983.88
2023-04-09T18:59:13.650Z,101982.16
2023-04-09T19:01:40.582Z,101998.63
2023-04-09T19:04:07.540Z,101990.81
2023-04-09T19:06:36.288Z,101989.13
2023-04-09T19:09:04.668Z,101999.59
2023-04-09T19:11:31.416Z,101985.34
2023-04-09T19:13:58.497Z,102015.84
2023-04-09T19:16:25.335Z,102022.50
2023-04-09T19:18:52.471Z,102014.38
2023-04-09T19:21:19.536Z,102025.06
2023-04-09T19:23:46.894Z,102020.88
2023-04-09T19:26:14.259Z,102028.59
2023-04-09T19:28:41.043Z,102031.69
2023-04-09T19:31:08.152Z,102040.16
2023-04-09T19:33:35.154Z,102042.91
2023-04-09T19:36:02.226Z,102040.06
2023-04-09T19:38:29.089Z,102052.19
2023-04-09T19:40:55.908Z,102050.00
2023-04-09T19:43:23.067Z,102049.22
2023-04-09T19:45:49.925Z,102053.81
2023-04-09T19:48:17.068Z,102039.16
2023-04-09T19:50:45.429Z,102038.44
2023-04-09T19:53:12.307Z,102053.97
2023-04-09T19:55:39.220Z,102056.31
2023-04-09T19:58:06.960Z,102056.31
2023-04-09T20:00:34.493Z,102046.50
2023-04-09T20:03:01.731Z,102057.66
2023-04-09T20:05:29.533Z,102061.09
2023-04-09T20:07:56.541Z,102055.50
2023-04-09T20:10:23.525Z,102060.19
2023-04-09T20:12:51.381Z,102069.59
2023-04-09T20:15:20.254Z,102069.50
2023-04-09T20:17:51.402Z,102072.91
2023-04-09T20:20:19.931Z,102057.97
2023-04-09T20:22:55.513Z,102073.47
2023-04-09T20:25:24.434Z,102065.00
2023-04-09T20:27:54.688Z,102057.41
2023-04-09T20:30:21.599Z,102054.19
2023-04-09T20:32:49.229Z,102055.09
2023-04-09T20:35:16.531Z,102075.22
2023-04-09T20:37:43.500Z,102077.78
2023-04-09T20:40:12.062Z,102075.09
2023-04-09T20:42:41.351Z,102090.72
2023-04-09T20:45:09.693Z,102084.84
2023-04-09T20:47:37.005Z,102091.88
2023-04-09T20:50:04.217Z,102073.84
2023-04-09T20:52:31.594Z,102086.66
2023-04-09T20:54:58.931Z,102083.25
2023-04-09T20:57:25.960Z,102093.63
2023-04-09T20:59:55.780Z,102066.41
2023-04-09T21:02:23.752Z,102078.59
2023-04-09T21:04:50.877Z,102073.34
2023-04-09T21:07:17.839Z,102093.59
2023-04-09T21:09:45.597Z,102094.34
2023-04-09T21:12:12.520Z,102098.50
2023-04-09T21:14:39.491Z,102103.75
2023-04-09T21:17:06.538Z,102096.69
2023-04-09T21:19:33.565Z,102087.69
2023-04-09T21:22:00.807Z,102087.31
2023-04-09T21:24:28.104Z,102084.91
2023-04-09T21:26:55.572Z,102081.63
2023-04-09T21:29:22.541Z,102103.28
2023-04-09T21:31:50.059Z,102106.72
2023-04-09T21:34:17.011Z,102102.38
2023-04-09T21:36:45.587Z,102104.94
2023-04-09T21:39:13.360Z,102099.78
2023-04-09T21:41:58.409Z,102109.28
2023-04-09T21:44:26.476Z,102086.28
2023-04-09T21:46:53.457Z,102083.44
2023-04-09T21:49:20.320Z,102101.69
2023-04-09T21:51:47.242Z,102099.72
2023-04-09T21:54:17.309Z,102088.22
2023-04-09T21:56:46.449Z,102081.69
2023-04-09T21:59:13.421Z,102085.94
2023-04-09T22:01:40.532Z,102081.69
2023-04-09T22:04:07.502Z,102085.78
2023-04-09T22:06:34.717Z,102088.34
2023-04-09T22:09:02.148Z,102095.94
2023-04-09T22:11:30.709Z,102079.47
2023-04-09T22:13:57.917Z,102086.41
2023-04-09T22:16:25.666Z,102104.75
2023-04-09T22:19:02.648Z,102101.22
2023-04-09T22:25:07.047Z,102089.78
2023-04-09T22:27:34.427Z,102089.09
2023-04-09T22:30:01.644Z,102083.09
2023-04-09T22:32:29.020Z,102096.56
2023-04-09T22:34:56.074Z,102113.03
2023-04-09T22:39:49.974Z,102094.56
2023-04-09T22:42:16.974Z,102105.34
2023-04-09T22:44:43.817Z,102117.22
2023-04-09T22:47:11.125Z,102105.97
2023-04-09T22:49:38.793Z,102129.97
2023-04-09T22:52:05.886Z,102120.47
2023-04-09T22:54:32.708Z,102107.97
2023-04-09T22:56:59.586Z,102103.03
2023-04-09T22:59:39.075Z,102114.72
2023-04-09T23:02:06.537Z,102124.66
2023-04-09T23:04:35.005Z,102128.72
2023-04-09T23:07:02.569Z,102126.28
2023-04-09T23:09:31.055Z,102116.28
2023-04-09T23:11:58.065Z,102116.16
2023-04-09T23:14:25.208Z,102125.75
2023-04-09T23:16:52.088Z,102118.09
2023-04-09T23:19:19.016Z,102115.69
2023-04-09T23:21:46.066Z,102123.97
2023-04-09T23:24:13.003Z,102099.03
2023-04-09T23:26:43.274Z,102103.09
2023-04-09T23:29:10.375Z,102105.72
2023-04-09T23:31:40.848Z,102115.97
2023-04-09T23:34:13.141Z,102131.78
2023-04-09T23:36:40.184Z,102128.44
2023-04-09T23:39:07.163Z,102125.91
2023-04-09T23:41:34.046Z,102122.13
2023-04-09T23:44:01.312Z,102119.38
2023-04-09T23:46:28.719Z,102124.88
2023-04-09T23:48:55.792Z,102088.63
2023-04-09T23:53:08.899Z,102119.34
